Aviation Digital Data Service (ADDS)

Output produced by METARs form (1412 UTC 24 April 2014)
found at http://aviationweather.gov/adds/metars/
 
KGNV 241304Z 2413/2512 VRB02KT 4SM BR SCT003 BKN060 
     TEMPO 2413/2414 2SM BR OVC003 
     FM241430 15006KT P6SM SCT050 
     FM242100 21008KT P6SM VCSH BKN050